Marjorie C — WDH6745 — position and weather

sailwx.info

Track history (hours):
 
Tides and Currents Weather Stations Pressure Air Temp Water Temp Dewpoint Dewpoint Depression Visibility Wind Speed Wind Dir Waves Ship Positions

Marjorie C

Owner: Pasha Hawaii Shipping Company LLC, San Rafael, CA. More information available from US FCC via Universal Licensing System and Coast Guard Vessel Documentation Center.

Last reported at 2017-Nov-23 03:00 UTC. Time now 2017-Nov-23 03:27 UTC.
Position N 32°48' W 121°37'.

Length 210 m; draft 9 m.

Type: Ship. MMSI: 367641230.

Date/timePositionNaut miles runAvg speedWind from/ knotsBaromVisibWave heightAir tempDewpointWater temp
2017-Nov-23 03:00N 32°48' W 121°37'1019.2
2017-Nov-23 02:30N 32°50' W 121°25'1019.2
2017-Nov-23 02:00N 32°52' W 121°14'918.9
2017-Nov-23 01:30N 32°54' W 121°03'918.9
2017-Nov-23 01:00N 32°55' W 120°52'1019.3
2017-Nov-23 00:30N 32°57' W 120°41'1019.1
2017-Nov-23 00:00N 32°59' W 120°29'919.0
2017-Nov-22 23:30N 33°00' W 120°18'919.0
2017-Nov-22 23:00N 33°02' W 120°07'918.6
2017-Nov-22 22:30N 33°03' W 119°56'918.6
2017-Nov-22 22:00N 33°05' W 119°45'918.5
2017-Nov-22 21:30N 33°06' W 119°34'918.2
2017-Nov-22 21:00N 33°08' W 119°24'918.1
2017-Nov-22 20:30N 33°12' W 119°14'918.5
2017-Nov-22 20:00N 33°16' W 119°04'918.3
2017-Nov-22 19:30N 33°20' W 118°54'  
2017-Nov-20 00:28N 33°46' W 118°15'0 0.0
2017-Nov-19 23:58N 33°46' W 118°15'0 0.0
2017-Nov-19 23:28N 33°46' W 118°15'0 0.0
2017-Nov-19 22:04N 33°46' W 118°15'0 0.0
2017-Nov-19 21:58N 33°46' W 118°15'0 0.0
2017-Nov-19 21:28N 33°46' W 118°15'0 0.0
2017-Nov-19 20:58N 33°46' W 118°15'0 0.0
2017-Nov-19 20:22N 33°46' W 118°15'0 0.0
2017-Nov-19 19:58N 33°46' W 118°15'0 0.0
2017-Nov-19 19:28N 33°46' W 118°15'0 0.0
2017-Nov-19 17:28N 33°46' W 118°15'0 0.0
2017-Nov-19 16:58N 33°46' W 118°15'0 0.0
2017-Nov-19 16:28N 33°46' W 118°15'0 0.0
2017-Nov-19 15:58N 33°46' W 118°15'0 0.0
2017-Nov-19 15:28N 33°46' W 118°15'0 0.0
2017-Nov-19 15:01N 33°46' W 118°15'0 0.8
2017-Nov-19 14:31N 33°46' W 118°15'2 3.5
2017-Nov-19 14:00N 33°44' W 118°17'3 5.7
2017-Nov-19 13:31N 33°42' W 118°15'5 9.0
2017-Nov-19 13:00N 33°38' W 118°16'510.6
2017-Nov-19 12:30N 33°35' W 118°21'917.6
2017-Nov-19 12:00N 33°33' W 118°31'916.8
2017-Nov-19 11:28N 33°29' W 118°41'817.3
2017-Nov-19 11:00N 33°24' W 118°49'917.1
2017-Nov-19 10:30N 33°19' W 118°57'917.0
2017-Nov-19 10:00N 33°15' W 119°06'917.5
2017-Nov-19 09:30N 33°11' W 119°15'917.4
2017-Nov-19 09:01N 33°08' W 119°25'917.9
2017-Nov-19 08:30N 33°06' W 119°35'918.3
2017-Nov-19 08:00N 33°05' W 119°46'918.1
2017-Nov-19 07:30N 33°03' W 119°57'918.2
2017-Nov-19 07:00N 33°02' W 120°07'918.2
2017-Nov-19 06:30N 33°00' W 120°18'917.7
2017-Nov-19 06:00N 32°58' W 120°28'918.3
2017-Nov-19 05:30N 32°56' W 120°39'918.7
2017-Nov-19 05:00N 32°55' W 120°50'918.8
2017-Nov-19 04:30N 32°53' W 121°01'1018.7
2017-Nov-19 03:59N 32°52' W 121°12'918.6
2017-Nov-19 03:30N 32°50' W 121°23'918.4
2017-Nov-19 03:00N 32°49' W 121°34'1018.4
2017-Nov-19 02:28N 32°46' W 121°45'918.3
2017-Nov-19 02:01N 32°44' W 121°55'918.4
2017-Nov-19 01:30N 32°42' W 122°06'918.2
2017-Nov-19 01:00N 32°40' W 122°16'1019.1
2017-Nov-19 00:30N 32°39' W 122°28'1119.4
2017-Nov-18 23:56N 32°38' W 122°41'819.3
2017-Nov-18 23:30N 32°36' W 122°50'1019.2
2017-Nov-18 22:57N 32°34' W 123°03'919.5
2017-Nov-18 22:30N 32°32' W 123°13'1019.3
2017-Nov-18 22:00N 32°31' W 123°24'2418.9
2017-Nov-18 20:43N 32°26' W 123°52'417.2
2017-Nov-18 20:30N 32°25' W 123°56'4116.2
2017-Nov-18 18:00N 32°12' W 124°42'12621.0 090 / 111025.510.8 16.612.721.5
2017-Nov-18 12:00N 31°42' W 127°06'12621.1 110 / 181023.010.8 18.317.321.7
2017-Nov-18 06:00N 31°12' W 129°30'24620.5 080 / 241021.410.8 17.716.922.5
2017-Nov-17 18:00N 30°06' W 134°06'12520.8 040 / 221020.010.8 18.815.123.8
2017-Nov-17 12:00N 29°30' W 136°24'12320.4 050 / 191018.510.8 18.813.024.4
2017-Nov-17 06:00N 28°48' W 138°36'24320.2 050 / 121017.210.8 20.012.024.5
2017-Nov-16 18:00N 27°24' W 142°54'12721.2 020 / 151019.010.8 21.113.325.5
2017-Nov-16 12:00N 26°24' W 145°00'12420.6 020 / 141019.010.8 21.112.326.5
2017-Nov-16 06:00N 25°48' W 147°12'   050 / 231019.210.8 21.610.527.2
Track history (hours):
 
Tides and Currents Weather Stations Pressure Air Temp Water Temp Dewpoint Dewpoint Depression Visibility Wind Speed Wind Dir Waves Ship Positions

Marjorie C

Owner: Pasha Hawaii Shipping Company LLC, San Rafael, CA. More information available from US FCC via Universal Licensing System and Coast Guard Vessel Documentation Center.

Last reported at 2017-Nov-23 03:00 UTC. Time now 2017-Nov-23 03:27 UTC.
Position N 32°48' W 121°37'.

Length 210 m; draft 9 m.

Type: Ship. MMSI: 367641230.

Date/timePositionNaut miles runAvg speedWind from/ knotsBaromVisibWave heightAir tempDewpointWater temp
2017-Nov-23 03:00N 32°48' W 121°37'1019.2
2017-Nov-23 02:30N 32°50' W 121°25'1019.2
2017-Nov-23 02:00N 32°52' W 121°14'918.9
2017-Nov-23 01:30N 32°54' W 121°03'918.9
2017-Nov-23 01:00N 32°55' W 120°52'1019.3
2017-Nov-23 00:30N 32°57' W 120°41'1019.1
2017-Nov-23 00:00N 32°59' W 120°29'919.0
2017-Nov-22 23:30N 33°00' W 120°18'919.0
2017-Nov-22 23:00N 33°02' W 120°07'918.6
2017-Nov-22 22:30N 33°03' W 119°56'918.6
2017-Nov-22 22:00N 33°05' W 119°45'918.5
2017-Nov-22 21:30N 33°06' W 119°34'918.2
2017-Nov-22 21:00N 33°08' W 119°24'918.1
2017-Nov-22 20:30N 33°12' W 119°14'918.5
2017-Nov-22 20:00N 33°16' W 119°04'918.3
2017-Nov-22 19:30N 33°20' W 118°54'  
2017-Nov-20 00:28N 33°46' W 118°15'0 0.0
2017-Nov-19 23:58N 33°46' W 118°15'0 0.0
2017-Nov-19 23:28N 33°46' W 118°15'0 0.0
2017-Nov-19 22:04N 33°46' W 118°15'0 0.0
2017-Nov-19 21:58N 33°46' W 118°15'0 0.0
2017-Nov-19 21:28N 33°46' W 118°15'0 0.0
2017-Nov-19 20:58N 33°46' W 118°15'0 0.0
2017-Nov-19 20:22N 33°46' W 118°15'0 0.0
2017-Nov-19 19:58N 33°46' W 118°15'0 0.0
2017-Nov-19 19:28N 33°46' W 118°15'0 0.0
2017-Nov-19 17:28N 33°46' W 118°15'0 0.0
2017-Nov-19 16:58N 33°46' W 118°15'0 0.0
2017-Nov-19 16:28N 33°46' W 118°15'0 0.0
2017-Nov-19 15:58N 33°46' W 118°15'0 0.0
2017-Nov-19 15:28N 33°46' W 118°15'0 0.0
2017-Nov-19 15:01N 33°46' W 118°15'0 0.8
2017-Nov-19 14:31N 33°46' W 118°15'2 3.5
2017-Nov-19 14:00N 33°44' W 118°17'3 5.7
2017-Nov-19 13:31N 33°42' W 118°15'5 9.0
2017-Nov-19 13:00N 33°38' W 118°16'510.6
2017-Nov-19 12:30N 33°35' W 118°21'917.6
2017-Nov-19 12:00N 33°33' W 118°31'916.8
2017-Nov-19 11:28N 33°29' W 118°41'817.3
2017-Nov-19 11:00N 33°24' W 118°49'917.1
2017-Nov-19 10:30N 33°19' W 118°57'917.0
2017-Nov-19 10:00N 33°15' W 119°06'917.5
2017-Nov-19 09:30N 33°11' W 119°15'917.4
2017-Nov-19 09:01N 33°08' W 119°25'917.9
2017-Nov-19 08:30N 33°06' W 119°35'918.3
2017-Nov-19 08:00N 33°05' W 119°46'918.1
2017-Nov-19 07:30N 33°03' W 119°57'918.2
2017-Nov-19 07:00N 33°02' W 120°07'918.2
2017-Nov-19 06:30N 33°00' W 120°18'917.7
2017-Nov-19 06:00N 32°58' W 120°28'918.3
2017-Nov-19 05:30N 32°56' W 120°39'918.7
2017-Nov-19 05:00N 32°55' W 120°50'918.8
2017-Nov-19 04:30N 32°53' W 121°01'1018.7
2017-Nov-19 03:59N 32°52' W 121°12'918.6
2017-Nov-19 03:30N 32°50' W 121°23'918.4
2017-Nov-19 03:00N 32°49' W 121°34'1018.4
2017-Nov-19 02:28N 32°46' W 121°45'918.3
2017-Nov-19 02:01N 32°44' W 121°55'918.4
2017-Nov-19 01:30N 32°42' W 122°06'918.2
2017-Nov-19 01:00N 32°40' W 122°16'1019.1
2017-Nov-19 00:30N 32°39' W 122°28'1119.4
2017-Nov-18 23:56N 32°38' W 122°41'819.3
2017-Nov-18 23:30N 32°36' W 122°50'1019.2
2017-Nov-18 22:57N 32°34' W 123°03'919.5
2017-Nov-18 22:30N 32°32' W 123°13'1019.3
2017-Nov-18 22:00N 32°31' W 123°24'2418.9
2017-Nov-18 20:43N 32°26' W 123°52'417.2
2017-Nov-18 20:30N 32°25' W 123°56'4116.2
2017-Nov-18 18:00N 32°12' W 124°42'12621.0 090 / 111025.510.8 16.612.721.5
2017-Nov-18 12:00N 31°42' W 127°06'12621.1 110 / 181023.010.8 18.317.321.7
2017-Nov-18 06:00N 31°12' W 129°30'24620.5 080 / 241021.410.8 17.716.922.5
2017-Nov-17 18:00N 30°06' W 134°06'12520.8 040 / 221020.010.8 18.815.123.8
2017-Nov-17 12:00N 29°30' W 136°24'12320.4 050 / 191018.510.8 18.813.024.4
2017-Nov-17 06:00N 28°48' W 138°36'24320.2 050 / 121017.210.8 20.012.024.5
2017-Nov-16 18:00N 27°24' W 142°54'12721.2 020 / 151019.010.8 21.113.325.5
2017-Nov-16 12:00N 26°24' W 145°00'12420.6 020 / 141019.010.8 21.112.326.5
2017-Nov-16 06:00N 25°48' W 147°12'   050 / 231019.210.8 21.610.527.2

Dump ship's entire track history